Time;durP1;ratioP1;P1;durP2;ratioP2;P2;SDS_P1;SDS_P2;PMS_P1;PMS_P2;Temp;Humidity;BMP_temperature;BMP_pressure;BME280_temperature;BME280_humidity;BME280_pressure;Samples;Min_cycle;Max_cycle;Signal;HPM_P1;HPM_P2
2022/03/02 00:01:44;;;;;;;33.30;24.45;;;5.10;99.90;;;;;;4999644;28;20049;-76
2022/03/02 00:04:10;;;;;;;35.00;24.15;;;4.70;99.90;;;;;;5014914;28;20041;-76
2022/03/02 00:06:35;;;;;;;36.50;24.30;;;4.70;99.90;;;;;;5003698;28;20049;-76
2022/03/02 00:09:01;;;;;;;36.78;25.60;;;4.70;99.90;;;;;;5003418;28;20052;-76
2022/03/02 00:11:27;;;;;;;33.17;24.20;;;5.60;99.90;;;;;;5018273;28;20053;-76
2022/03/02 00:13:54;;;;;;;35.95;25.08;;;3.80;99.90;;;;;;5033932;28;20046;-76
2022/03/02 00:16:20;;;;;;;36.65;25.42;;;3.90;99.90;;;;;;5017845;28;20125;-76
2022/03/02 00:18:45;;;;;;;34.47;25.58;;;4.70;99.90;;;;;;5019737;28;20128;-76
2022/03/02 00:21:11;;;;;;;36.53;24.35;;;5.20;99.90;;;;;;5003059;28;20126;-76
2022/03/02 00:23:37;;;;;;;35.25;24.90;;;4.70;99.90;;;;;;5008842;28;20552;-76
2022/03/02 00:26:03;;;;;;;36.38;26.08;;;4.70;99.90;;;;;;5017470;28;20614;-76
2022/03/02 00:28:29;;;;;;;35.72;24.25;;;4.70;99.90;;;;;;5019695;28;20046;-76
2022/03/02 00:30:55;;;;;;;36.17;24.38;;;4.80;99.90;;;;;;5005202;28;20439;-76
2022/03/02 00:33:21;;;;;;;34.75;25.23;;;4.70;99.90;;;;;;5005187;28;20056;-76
2022/03/02 00:35:47;;;;;;;39.85;26.17;;;4.70;99.90;;;;;;5019133;28;20148;-76
2022/03/02 00:38:12;;;;;;;37.70;24.25;;;4.70;99.90;;;;;;5001345;28;20120;-76
2022/03/02 00:40:39;;;;;;;39.38;24.45;;;5.80;99.90;;;;;;5019088;28;20092;-76
2022/03/02 00:43:06;;;;;;;38.33;24.75;;;5.00;99.90;;;;;;5017350;28;20053;-76
2022/03/02 00:45:33;;;;;;;38.38;25.00;;;4.70;99.90;;;;;;5010747;28;20045;-77
2022/03/02 00:48:00;;;;;;;39.35;25.52;;;4.70;99.90;;;;;;5009618;28;20053;-76
2022/03/02 00:50:26;;;;;;;36.60;24.42;;;4.70;99.90;;;;;;5018461;28;20060;-76
2022/03/02 00:52:52;;;;;;;40.88;25.55;;;4.70;99.90;;;;;;5016954;28;20724;-76
2022/03/02 00:55:18;;;;;;;39.45;25.85;;;4.70;99.90;;;;;;5023048;28;20048;-76
2022/03/02 00:57:44;;;;;;;39.30;25.42;;;5.10;99.90;;;;;;5005032;28;20079;-76
2022/03/02 01:00:11;;;;;;;41.05;25.52;;;4.70;99.90;;;;;;5026465;28;20128;-76
2022/03/02 01:02:38;;;;;;;37.70;24.95;;;4.70;99.90;;;;;;5017390;28;20629;-76
2022/03/02 01:05:05;;;;;;;40.47;26.33;;;4.70;99.90;;;;;;5015852;28;20108;-76
2022/03/02 01:07:31;;;;;;;41.30;26.90;;;4.90;99.90;;;;;;5016835;28;20088;-76
2022/03/02 01:09:58;;;;;;;37.60;25.48;;;4.70;99.90;;;;;;5017555;28;20125;-76
2022/03/02 01:12:24;;;;;;;34.72;23.83;;;5.10;99.90;;;;;;5004846;28;20084;-77
2022/03/02 01:14:50;;;;;;;38.10;25.40;;;4.70;99.90;;;;;;5003079;28;20483;-76
2022/03/02 01:17:17;;;;;;;38.88;25.05;;;5.80;99.90;;;;;;5016746;28;20104;-76
2022/03/02 01:19:43;;;;;;;39.90;25.67;;;4.70;99.90;;;;;;5017024;28;20045;-75
2022/03/02 01:22:09;;;;;;;37.78;25.90;;;4.70;99.90;;;;;;5000605;28;20064;-76
2022/03/02 01:24:35;;;;;;;40.42;25.52;;;4.70;99.90;;;;;;5001022;28;20104;-76
2022/03/02 01:27:01;;;;;;;38.55;24.73;;;5.40;99.90;;;;;;5000490;28;20114;-76
2022/03/02 01:29:30;;;;;;;35.03;23.92;;;4.70;99.90;;;;;;4999934;28;20056;-76
2022/03/02 01:31:59;;;;;;;40.72;25.77;;;4.60;99.90;;;;;;5015156;28;20046;-76
2022/03/02 01:34:25;;;;;;;38.72;25.52;;;4.70;99.90;;;;;;4999170;28;20049;-76
2022/03/02 01:36:50;;;;;;;38.85;24.92;;;4.70;99.90;;;;;;5004485;28;20049;-79
2022/03/02 01:39:16;;;;;;;43.20;26.33;;;4.70;99.90;;;;;;5004612;28;20038;-77
2022/03/02 01:41:42;;;;;;;37.28;25.85;;;5.00;99.90;;;;;;4999314;28;20110;-76
2022/03/02 01:44:08;;;;;;;36.28;24.77;;;4.90;99.90;;;;;;5004472;28;20065;-76
2022/03/02 01:46:35;;;;;;;42.70;26.67;;;4.60;99.90;;;;;;5002945;28;20720;-76
2022/03/02 01:49:01;;;;;;;40.97;24.83;;;4.60;99.90;;;;;;5017933;28;20108;-76
2022/03/02 01:51:27;;;;;;;41.53;26.02;;;4.70;99.90;;;;;;4999637;28;20045;-76
2022/03/02 01:53:53;;;;;;;41.53;24.25;;;4.60;99.90;;;;;;5016667;28;20058;-77
2022/03/02 01:56:19;;;;;;;42.45;25.40;;;5.40;99.90;;;;;;5018232;28;20042;-76
2022/03/02 01:58:45;;;;;;;38.30;24.35;;;4.60;99.90;;;;;;5016954;28;20091;-76
2022/03/02 02:01:11;;;;;;;38.10;24.50;;;4.60;99.90;;;;;;5017526;28;20042;-76
2022/03/02 02:03:38;;;;;;;39.67;25.55;;;4.90;99.90;;;;;;5015784;28;20053;-76
2022/03/02 02:06:05;;;;;;;39.70;25.05;;;4.60;99.90;;;;;;5016233;28;20084;-76
2022/03/02 02:08:31;;;;;;;35.70;23.45;;;4.60;99.90;;;;;;5002072;28;20105;-76
2022/03/02 02:10:59;;;;;;;36.33;24.48;;;5.00;99.90;;;;;;5004019;28;20041;-76
2022/03/02 02:13:26;;;;;;;36.38;23.88;;;4.60;99.90;;;;;;5013800;28;20136;-76
2022/03/02 02:15:54;;;;;;;39.28;25.38;;;5.10;99.90;;;;;;4999390;28;20053;-76
2022/03/02 02:18:20;;;;;;;39.60;24.48;;;4.60;99.90;;;;;;5004168;28;20148;-76
2022/03/02 02:20:46;;;;;;;39.33;24.33;;;5.30;99.90;;;;;;5015313;28;20050;-76
2022/03/02 02:23:12;;;;;;;35.70;23.65;;;4.60;99.90;;;;;;5015843;28;20123;-77
2022/03/02 02:25:38;;;;;;;38.65;24.05;;;4.50;99.90;;;;;;5019405;28;20054;-76
2022/03/02 02:28:06;;;;;;;37.78;23.92;;;4.50;99.90;;;;;;5008633;28;20056;-78
2022/03/02 02:30:33;;;;;;;37.80;23.75;;;4.50;99.90;;;;;;5032369;28;20049;-78
2022/03/02 02:32:58;;;;;;;37.15;23.85;;;4.50;99.90;;;;;;5028802;28;20165;-78
2022/03/02 02:35:27;;;;;;;37.17;24.33;;;5.10;99.90;;;;;;5007301;28;20490;-78
2022/03/02 02:37:54;;;;;;;38.95;24.75;;;4.50;99.90;;;;;;5014620;28;20089;-78
2022/03/02 02:40:21;;;;;;;39.17;24.33;;;4.50;99.90;;;;;;5016730;28;20045;-76
2022/03/02 02:42:48;;;;;;;34.38;22.58;;;5.40;99.90;;;;;;4998440;28;20534;-76
2022/03/02 02:45:20;;;;;;;37.42;22.90;;;4.50;99.90;;;;;;5024565;28;20042;-76
2022/03/02 02:47:49;;;;;;;35.72;23.65;;;4.50;99.90;;;;;;5020245;28;20398;-76
2022/03/02 02:50:19;;;;;;;37.58;22.98;;;4.50;99.90;;;;;;4998488;28;20050;-76
2022/03/02 02:52:45;;;;;;;37.25;23.95;;;4.40;99.90;;;;;;5015510;28;20100;-76
2022/03/02 02:55:13;;;;;;;37.25;22.92;;;4.40;99.90;;;;;;5016054;28;20045;-76
2022/03/02 02:57:39;;;;;;;34.83;22.77;;;4.40;99.90;;;;;;5016476;28;20077;-77
2022/03/02 03:00:09;;;;;;;40.15;23.95;;;4.40;99.90;;;;;;5004001;28;20076;-76
2022/03/02 03:02:34;;;;;;;35.85;22.70;;;4.40;99.90;;;;;;5014980;28;20445;-76
2022/03/02 03:05:00;;;;;;;35.88;21.90;;;5.40;99.90;;;;;;5016189;28;20121;-76
2022/03/02 03:07:26;;;;;;;35.35;22.95;;;4.40;99.90;;;;;;5015478;28;20045;-76
2022/03/02 03:09:52;;;;;;;38.72;22.77;;;5.30;99.90;;;;;;5004464;28;20054;-76
2022/03/02 03:12:18;;;;;;;37.47;23.95;;;4.40;99.90;;;;;;5019752;28;20056;-76
2022/03/02 03:14:43;;;;;;;38.90;23.52;;;4.50;99.90;;;;;;5015043;28;20053;-76
2022/03/02 03:17:09;;;;;;;36.58;23.23;;;4.30;99.90;;;;;;5016260;28;20104;-76
2022/03/02 03:19:35;;;;;;;33.45;22.17;;;4.30;99.90;;;;;;5005553;28;20053;-76
2022/03/02 03:22:06;;;;;;;37.72;23.50;;;4.30;99.90;;;;;;5002941;28;20184;-79
2022/03/02 03:24:32;;;;;;;40.10;24.23;;;4.30;99.90;;;;;;5031186;28;20062;-78
2022/03/02 03:26:58;;;;;;;35.58;22.40;;;4.30;99.90;;;;;;4994968;28;20503;-77
2022/03/02 03:29:24;;;;;;;36.25;23.60;;;4.30;99.90;;;;;;5007559;28;20068;-78
2022/03/02 03:31:49;;;;;;;39.05;24.10;;;4.50;99.90;;;;;;5015161;28;20055;-77
2022/03/02 03:34:15;;;;;;;42.33;24.55;;;4.30;99.90;;;;;;5013099;28;20049;-77
2022/03/02 03:36:41;;;;;;;38.72;23.48;;;4.60;99.90;;;;;;5012668;28;20069;-78
2022/03/02 03:39:07;;;;;;;40.83;24.15;;;4.30;99.90;;;;;;5021476;28;20819;-77
2022/03/02 03:41:33;;;;;;;39.80;25.85;;;5.10;99.90;;;;;;5014705;28;20073;-77
2022/03/02 03:43:59;;;;;;;39.55;24.17;;;4.30;99.90;;;;;;5012933;28;20076;-77
2022/03/02 03:46:25;;;;;;;38.40;24.45;;;4.20;99.90;;;;;;5000267;28;20046;-77
2022/03/02 03:48:50;;;;;;;40.80;24.52;;;4.70;99.90;;;;;;5017257;28;20077;-77
2022/03/02 03:51:16;;;;;;;41.22;25.30;;;4.30;99.90;;;;;;5017855;28;20077;-78
2022/03/02 03:53:42;;;;;;;42.92;25.30;;;4.20;99.90;;;;;;4999495;28;20099;-77
2022/03/02 03:56:08;;;;;;;46.22;25.55;;;4.60;99.90;;;;;;5003583;28;20532;-77
2022/03/02 03:58:34;;;;;;;46.25;26.13;;;4.20;99.90;;;;;;5009801;28;20400;-77
2022/03/02 04:00:59;;;;;;;45.63;24.15;;;4.90;99.90;;;;;;5020422;28;20074;-77
2022/03/02 04:03:25;;;;;;;44.00;25.08;;;4.30;99.90;;;;;;5006837;28;20049;-77
2022/03/02 04:05:51;;;;;;;42.95;22.98;;;4.10;99.90;;;;;;5019311;28;20399;-78
2022/03/02 04:08:17;;;;;;;45.50;25.73;;;4.10;99.90;;;;;;5018533;28;20078;-78
2022/03/02 04:10:45;;;;;;;46.00;25.38;;;4.10;99.90;;;;;;5019573;28;20034;-78
2022/03/02 04:13:12;;;;;;;46.33;24.13;;;4.10;99.90;;;;;;5005219;28;20133;-78
2022/03/02 04:15:38;;;;;;;44.42;24.48;;;4.50;99.90;;;;;;5006218;28;20053;-78
2022/03/02 04:18:06;;;;;;;44.38;24.77;;;4.10;99.90;;;;;;5006145;28;20527;-78
2022/03/02 04:20:35;;;;;;;46.13;26.33;;;4.10;99.90;;;;;;5035977;28;20093;-77
2022/03/02 04:23:02;;;;;;;43.78;24.35;;;4.10;99.90;;;;;;5018301;28;20148;-78
2022/03/02 04:25:28;;;;;;;43.17;23.60;;;4.00;99.90;;;;;;5018044;28;20049;-78
2022/03/02 04:27:54;;;;;;;43.53;24.20;;;4.00;99.90;;;;;;5015523;28;20047;-78
2022/03/02 04:30:20;;;;;;;44.40;23.83;;;4.30;99.90;;;;;;5018338;28;20042;-78
2022/03/02 04:32:45;;;;;;;43.80;24.02;;;3.90;99.90;;;;;;5009726;28;20045;-78
2022/03/02 04:35:12;;;;;;;41.55;23.35;;;3.80;99.90;;;;;;5020699;28;20037;-78
2022/03/02 04:37:40;;;;;;;43.90;24.67;;;3.80;99.90;;;;;;5006003;28;20049;-78
2022/03/02 04:40:07;;;;;;;45.33;24.77;;;3.70;99.90;;;;;;5004949;28;20617;-78
2022/03/02 04:42:33;;;;;;;42.17;24.15;;;3.70;99.90;;;;;;5018079;28;20046;-78
2022/03/02 04:44:59;;;;;;;46.17;25.17;;;3.60;99.90;;;;;;4986717;28;20050;-78
2022/03/02 04:47:25;;;;;;;36.88;21.40;;;3.70;99.90;;;;;;5018691;28;20434;-78
2022/03/02 04:49:51;;;;;;;43.97;25.08;;;3.50;99.90;;;;;;5004801;28;20225;-78
2022/03/02 04:52:18;;;;;;;43.20;25.05;;;3.50;99.90;;;;;;5018056;28;20046;-79
2022/03/02 04:57:29;;;;;;;39.10;23.20;;;3.40;99.90;;;;;;5006477;28;20057;-77
2022/03/02 04:59:55;;;;;;;47.00;25.40;;;3.30;99.90;;;;;;5018556;28;20051;-78
2022/03/02 05:02:20;;;;;;;43.35;23.83;;;3.70;99.90;;;;;;5003972;28;20041;-78
2022/03/02 05:04:46;;;;;;;47.55;25.13;;;3.50;99.90;;;;;;5017970;28;20076;-78
2022/03/02 05:07:12;;;;;;;42.53;23.70;;;3.20;99.90;;;;;;5018651;28;20046;-77
2022/03/02 05:09:38;;;;;;;42.08;23.17;;;4.20;99.90;;;;;;5004797;28;20524;-78
2022/03/02 05:12:04;;;;;;;41.20;23.60;;;4.40;99.90;;;;;;5003964;28;20147;-78
2022/03/02 05:14:30;;;;;;;41.58;23.92;;;3.20;99.90;;;;;;4986204;28;20065;-78
2022/03/02 05:16:56;;;;;;;45.30;24.20;;;4.10;99.90;;;;;;5019630;28;20395;-78
2022/03/02 05:19:22;;;;;;;41.92;23.92;;;3.10;99.90;;;;;;5016247;28;20056;-78
2022/03/02 05:21:48;;;;;;;47.83;25.23;;;3.10;99.90;;;;;;5016080;28;20503;-79
2022/03/02 05:24:14;;;;;;;43.85;23.70;;;3.00;99.90;;;;;;5010345;28;20412;-78
2022/03/02 05:26:40;;;;;;;39.45;23.00;;;3.00;99.90;;;;;;5018840;28;20052;-78
2022/03/02 05:29:07;;;;;;;43.50;25.85;;;2.90;99.90;;;;;;5016801;28;20049;-78
2022/03/02 05:31:33;;;;;;;44.03;24.58;;;2.90;99.90;;;;;;5016088;28;20092;-76
2022/03/02 05:33:59;;;;;;;43.28;24.35;;;2.90;99.90;;;;;;5003485;28;20034;-76
2022/03/02 05:36:25;;;;;;;41.25;23.40;;;2.80;99.90;;;;;;5003710;28;20380;-76
2022/03/02 05:38:52;;;;;;;46.30;25.15;;;3.80;99.90;;;;;;4999827;28;20045;-76
2022/03/02 05:41:18;;;;;;;38.17;23.73;;;3.20;99.90;;;;;;5025150;28;20100;-76
2022/03/02 05:43:44;;;;;;;40.90;23.02;;;2.70;99.90;;;;;;5015254;28;20090;-77
2022/03/02 05:46:10;;;;;;;42.67;24.48;;;2.70;99.90;;;;;;5001412;28;20440;-78
2022/03/02 05:48:36;;;;;;;42.22;23.25;;;2.70;99.90;;;;;;5004018;28;20045;-76
2022/03/02 05:51:02;;;;;;;41.50;22.90;;;3.70;99.90;;;;;;5032267;28;20046;-77
2022/03/02 05:53:28;;;;;;;43.13;24.80;;;2.60;99.90;;;;;;5008683;28;20057;-77
2022/03/02 05:55:54;;;;;;;44.30;23.08;;;2.60;99.90;;;;;;4997459;28;20045;-77
2022/03/02 05:58:19;;;;;;;40.47;22.92;;;3.20;99.90;;;;;;5016500;28;20045;-77
2022/03/02 06:00:45;;;;;;;42.15;23.42;;;3.10;99.90;;;;;;5016498;28;20049;-77
2022/03/02 06:03:11;;;;;;;39.70;22.92;;;2.70;99.90;;;;;;5032202;28;20041;-77
2022/03/02 06:05:37;;;;;;;41.67;25.23;;;2.40;99.90;;;;;;5018347;28;20054;-77
2022/03/02 06:08:03;;;;;;;42.15;23.25;;;2.70;99.90;;;;;;4998428;28;20855;-77
2022/03/02 06:10:29;;;;;;;41.65;24.48;;;2.40;99.90;;;;;;4997459;28;20396;-76
2022/03/02 06:12:55;;;;;;;39.53;23.95;;;2.40;99.90;;;;;;4999655;28;20069;-77
2022/03/02 06:15:21;;;;;;;42.10;23.88;;;2.30;99.90;;;;;;5015661;28;20046;-77
2022/03/02 06:17:47;;;;;;;37.50;23.77;;;2.30;99.90;;;;;;5022108;28;20094;-76
2022/03/02 06:20:14;;;;;;;44.75;25.17;;;2.30;99.90;;;;;;5002771;28;20534;-78
2022/03/02 06:22:40;;;;;;;43.65;25.52;;;2.20;99.90;;;;;;5001934;28;20045;-78
2022/03/02 06:25:07;;;;;;;41.58;24.73;;;2.20;99.90;;;;;;5003284;28;20058;-78
2022/03/02 06:27:34;;;;;;;40.67;23.25;;;2.20;99.90;;;;;;5021750;28;20053;-78
2022/03/02 06:29:59;;;;;;;41.47;24.05;;;2.20;99.90;;;;;;5012417;28;20072;-78
2022/03/02 06:32:26;;;;;;;39.65;24.60;;;2.20;99.90;;;;;;5015773;28;20041;-77
2022/03/02 06:34:54;;;;;;;40.72;24.17;;;2.20;99.90;;;;;;5014524;28;20052;-78
2022/03/02 06:37:20;;;;;;;41.28;24.15;;;2.20;99.90;;;;;;5015694;28;20081;-78
2022/03/02 06:39:46;;;;;;;42.75;24.30;;;2.50;99.90;;;;;;5015741;28;20081;-77
2022/03/02 06:42:21;;;;;;;41.97;23.65;;;2.10;99.90;;;;;;4997541;28;20073;-77
2022/03/02 06:44:53;;;;;;;44.33;25.58;;;2.10;99.90;;;;;;5015473;28;20084;-78
2022/03/02 06:47:22;;;;;;;40.83;25.00;;;2.10;99.90;;;;;;5015304;28;20499;-78
2022/03/02 06:50:03;;;;;;;40.25;23.38;;;2.10;99.90;;;;;;5016412;28;20041;-78
2022/03/02 06:52:38;;;;;;;39.97;23.73;;;3.10;99.90;;;;;;5015671;28;20045;-78
2022/03/02 06:55:10;;;;;;;40.05;24.88;;;2.10;99.90;;;;;;5005882;28;20877;-78
2022/03/02 06:57:39;;;;;;;39.47;23.98;;;2.10;99.90;;;;;;5003866;28;20045;-78
2022/03/02 07:00:18;;;;;;;41.53;24.67;;;2.90;99.90;;;;;;5021272;28;20041;-78
2022/03/02 07:02:48;;;;;;;45.42;25.70;;;2.10;99.90;;;;;;5015244;28;20446;-78
2022/03/02 07:05:15;;;;;;;42.30;25.00;;;2.10;99.90;;;;;;5015422;28;20236;-78
2022/03/02 07:07:41;;;;;;;43.70;26.15;;;2.10;99.90;;;;;;5001133;28;20044;-79
2022/03/02 07:10:08;;;;;;;44.28;24.45;;;2.10;99.90;;;;;;4991333;28;20055;-78
2022/03/02 07:12:35;;;;;;;40.10;23.77;;;2.10;99.90;;;;;;5021855;28;20065;-77
2022/03/02 07:15:01;;;;;;;44.17;25.38;;;2.80;99.90;;;;;;5014697;28;20045;-77
2022/03/02 07:17:31;;;;;;;38.63;23.55;;;2.10;99.90;;;;;;5015106;28;20046;-77
2022/03/02 07:20:02;;;;;;;43.17;24.10;;;2.90;99.90;;;;;;5013868;28;20056;-78
2022/03/02 07:22:32;;;;;;;45.40;26.00;;;2.20;99.90;;;;;;5018936;28;20054;-77
2022/03/02 07:25:15;;;;;;;40.00;23.90;;;2.20;99.90;;;;;;5014678;28;20046;-78
2022/03/02 07:27:41;;;;;;;40.22;24.85;;;3.00;99.90;;;;;;5033070;28;20064;-77
2022/03/02 07:30:08;;;;;;;38.90;23.85;;;2.40;99.90;;;;;;5016787;28;20041;-77
2022/03/02 07:32:36;;;;;;;39.65;23.83;;;2.20;99.90;;;;;;5015221;28;20048;-77
2022/03/02 07:35:04;;;;;;;39.65;24.75;;;2.20;99.90;;;;;;5013036;28;20056;-77
2022/03/02 07:37:32;;;;;;;42.20;23.85;;;2.30;99.90;;;;;;5013415;28;20137;-77
2022/03/02 07:39:59;;;;;;;40.33;25.10;;;3.90;99.90;;;;;;5007654;28;20064;-78
2022/03/02 07:42:25;;;;;;;40.55;24.40;;;2.30;99.90;;;;;;4983472;28;20229;-77
2022/03/02 07:44:52;;;;;;;40.20;23.92;;;2.40;99.90;;;;;;5002721;28;20046;-77
2022/03/02 07:47:18;;;;;;;41.03;25.05;;;2.40;99.90;;;;;;5030699;28;20065;-77
2022/03/02 07:49:46;;;;;;;43.95;25.73;;;3.10;99.90;;;;;;5013421;28;20053;-77
2022/03/02 07:52:14;;;;;;;42.88;25.20;;;2.70;99.90;;;;;;5013654;28;20072;-77
2022/03/02 07:54:41;;;;;;;39.08;24.80;;;2.50;99.90;;;;;;5015353;28;20049;-77
2022/03/02 07:57:15;;;;;;;41.28;24.08;;;2.70;99.90;;;;;;5031782;28;20479;-78
2022/03/02 07:59:42;;;;;;;41.58;24.88;;;3.90;99.90;;;;;;5030179;28;20083;-77
2022/03/02 08:02:11;;;;;;;41.75;24.73;;;2.70;99.90;;;;;;5013049;28;20092;-78
2022/03/02 08:04:40;;;;;;;38.70;25.27;;;2.70;99.90;;;;;;5016693;28;20184;-77
2022/03/02 08:07:06;;;;;;;36.22;24.08;;;2.80;99.90;;;;;;5017823;28;20056;-77
2022/03/02 08:09:34;;;;;;;38.72;24.17;;;2.90;99.90;;;;;;5016462;28;20051;-77
2022/03/02 08:12:01;;;;;;;38.90;25.35;;;2.90;99.90;;;;;;5015220;28;20093;-78
2022/03/02 08:14:27;;;;;;;40.85;25.40;;;4.30;99.90;;;;;;5032348;28;20079;-77
2022/03/02 08:16:54;;;;;;;39.55;24.95;;;3.10;99.90;;;;;;5016840;28;20046;-77
2022/03/02 08:19:21;;;;;;;41.17;25.35;;;3.20;99.90;;;;;;5007716;28;20491;-77
2022/03/02 08:21:55;;;;;;;40.42;25.38;;;4.70;99.90;;;;;;5015629;28;20050;-77
2022/03/02 08:24:26;;;;;;;40.80;25.50;;;3.40;99.90;;;;;;5016759;28;20120;-77
2022/03/02 08:26:56;;;;;;;46.15;27.50;;;3.60;99.90;;;;;;5008131;28;20060;-77
2022/03/02 08:29:25;;;;;;;45.75;26.60;;;3.80;99.90;;;;;;5017147;28;20495;-78
2022/03/02 08:31:54;;;;;;;39.55;25.42;;;4.10;99.90;;;;;;5019533;28;20119;-78
2022/03/02 08:34:20;;;;;;;40.70;26.60;;;4.30;99.90;;;;;;5021143;28;20148;-78
2022/03/02 08:36:49;;;;;;;38.83;24.98;;;4.50;99.90;;;;;;5020995;28;20046;-78
2022/03/02 08:39:15;;;;;;;38.95;25.13;;;4.70;99.90;;;;;;5020243;28;20449;-77
2022/03/02 08:41:41;;;;;;;39.35;24.55;;;5.00;99.90;;;;;;5004221;28;20147;-77
2022/03/02 08:44:08;;;;;;;37.90;23.00;;;5.20;99.90;;;;;;5018393;28;20475;-78
2022/03/02 08:46:34;;;;;;;36.35;24.02;;;5.10;99.90;;;;;;5021323;28;20060;-78
2022/03/02 08:49:00;;;;;;;38.13;24.60;;;6.60;99.90;;;;;;5004336;28;20054;-78
2022/03/02 08:51:26;;;;;;;36.42;23.38;;;5.80;99.90;;;;;;5020243;28;20084;-78
2022/03/02 08:53:59;;;;;;;33.47;21.42;;;7.10;99.90;;;;;;5017028;28;20049;-78
2022/03/02 08:56:26;;;;;;;34.75;23.80;;;6.10;99.90;;;;;;5025814;28;20228;-78
2022/03/02 08:58:55;;;;;;;31.27;22.15;;;7.00;99.90;;;;;;5001793;28;20042;-79
2022/03/02 09:01:23;;;;;;;36.22;22.88;;;6.50;99.90;;;;;;5009912;28;20721;-78
2022/03/02 09:03:53;;;;;;;32.85;22.10;;;6.60;99.90;;;;;;5001744;28;20407;-78
2022/03/02 09:06:22;;;;;;;33.88;21.92;;;6.90;99.90;;;;;;5004323;28;20057;-78
2022/03/02 09:08:47;;;;;;;32.45;21.58;;;7.10;99.90;;;;;;5019224;28;20394;-78
2022/03/02 09:11:13;;;;;;;30.80;22.20;;;7.20;99.90;;;;;;5003955;28;20053;-78
2022/03/02 09:13:39;;;;;;;34.17;22.27;;;7.30;99.90;;;;;;5011028;28;20393;-78
2022/03/02 09:16:10;;;;;;;30.98;20.65;;;7.50;99.90;;;;;;5019789;28;20050;-78
2022/03/02 09:18:37;;;;;;;32.28;21.17;;;7.60;99.90;;;;;;5019484;28;20479;-76
2022/03/02 09:21:05;;;;;;;30.73;20.67;;;7.70;99.90;;;;;;5019433;28;20045;-76
2022/03/02 09:23:34;;;;;;;31.00;21.50;;;7.80;99.90;;;;;;5019272;28;20046;-76
2022/03/02 09:26:08;;;;;;;28.60;21.08;;;7.90;99.90;;;;;;5036576;28;20049;-76
2022/03/02 09:28:37;;;;;;;29.38;20.85;;;8.40;99.90;;;;;;5020008;28;20184;-76
2022/03/02 09:31:04;;;;;;;27.98;20.55;;;8.00;99.90;;;;;;5017804;28;20054;-76
2022/03/02 09:33:31;;;;;;;30.02;20.40;;;8.10;99.90;;;;;;5017111;28;20063;-76
2022/03/02 09:36:02;;;;;;;32.80;21.88;;;8.10;99.90;;;;;;5010988;28;20053;-76
2022/03/02 09:38:30;;;;;;;29.17;20.45;;;8.10;99.90;;;;;;5017813;28;20112;-76
2022/03/02 09:40:58;;;;;;;33.35;21.35;;;8.10;99.90;;;;;;5020798;28;20053;-76
2022/03/02 09:43:25;;;;;;;29.40;20.75;;;8.10;99.90;;;;;;5018443;28;20288;-76
2022/03/02 09:45:57;;;;;;;29.13;19.95;;;8.30;99.90;;;;;;5003234;28;20134;-76
2022/03/02 09:48:35;;;;;;;27.45;19.92;;;8.40;99.90;;;;;;5019911;28;20499;-76
2022/03/02 09:51:06;;;;;;;29.15;20.88;;;8.50;99.90;;;;;;5019527;28;20065;-76
2022/03/02 09:53:34;;;;;;;28.48;20.58;;;8.60;99.90;;;;;;5034561;28;20132;-76
2022/03/02 09:56:08;;;;;;;30.73;21.20;;;8.70;99.90;;;;;;5018691;28;20053;-76
2022/03/02 09:58:39;;;;;;;27.45;19.08;;;8.90;99.90;;;;;;5017075;28;20362;-76
2022/03/02 10:01:10;;;;;;;28.63;19.90;;;9.10;99.90;;;;;;5001315;28;20208;-76
2022/03/02 10:03:37;;;;;;;27.67;20.95;;;9.60;99.90;;;;;;5017076;28;20115;-76
2022/03/02 10:06:05;;;;;;;27.60;19.88;;;9.50;99.90;;;;;;5019310;28;20046;-76
2022/03/02 10:08:36;;;;;;;27.55;19.73;;;9.80;99.90;;;;;;5018457;28;20089;-77
2022/03/02 10:11:04;;;;;;;31.13;21.70;;;10.00;99.90;;;;;;5003720;28;20045;-76
2022/03/02 10:13:31;;;;;;;28.23;20.63;;;10.20;99.90;;;;;;5017918;28;20065;-76
2022/03/02 10:15:58;;;;;;;25.98;19.75;;;10.40;99.90;;;;;;5019188;28;20057;-76
2022/03/02 10:18:28;;;;;;;29.65;19.83;;;10.50;99.90;;;;;;5018675;28;20100;-76
2022/03/02 10:21:00;;;;;;;25.42;19.80;;;10.60;99.90;;;;;;5034142;28;20601;-77
2022/03/02 10:23:34;;;;;;;27.65;19.30;;;10.60;99.90;;;;;;5017507;28;20064;-77
2022/03/02 10:26:02;;;;;;;28.83;21.08;;;10.70;99.90;;;;;;5034240;28;20053;-76
2022/03/02 10:28:51;;;;;;;29.42;20.15;;;10.80;99.90;;;;;;5015323;28;20621;-77
2022/03/02 10:31:39;;;;;;;31.10;21.27;;;10.90;99.90;;;;;;5029052;28;20198;-76
2022/03/02 10:34:21;;;;;;;26.33;19.65;;;11.00;99.90;;;;;;5015930;28;20127;-76
2022/03/02 10:36:56;;;;;;;26.70;19.50;;;11.00;99.90;;;;;;5017174;28;20057;-76
2022/03/02 10:40:24;;;;;;;27.65;19.20;;;10.10;99.90;;;;;;5012430;28;20053;-78
2022/03/02 10:42:57;;;;;;;27.97;19.97;;;11.20;99.90;;;;;;4952470;28;20042;-78
2022/03/02 10:45:42;;;;;;;23.83;18.17;;;11.10;99.90;;;;;;5016547;28;20065;-78
2022/03/02 10:48:12;;;;;;;27.98;19.83;;;11.30;99.90;;;;;;5015820;28;20050;-79
2022/03/02 10:50:41;;;;;;;25.30;19.20;;;11.40;99.90;;;;;;5014719;28;20080;-80
2022/03/02 10:53:16;;;;;;;25.15;19.48;;;11.60;99.90;;;;;;5017099;28;20936;-79
2022/03/02 10:55:48;;;;;;;26.90;19.83;;;11.70;99.90;;;;;;5016783;28;20133;-79
2022/03/02 10:58:18;;;;;;;26.17;20.50;;;11.90;99.90;;;;;;5007892;28;20518;-80
2022/03/02 11:00:45;;;;;;;26.05;19.60;;;12.10;99.90;;;;;;5000943;28;20050;-80
2022/03/02 11:03:13;;;;;;;23.65;18.77;;;12.30;99.90;;;;;;5014160;28;20044;-80
2022/03/02 11:05:40;;;;;;;25.17;18.67;;;12.60;99.90;;;;;;5017848;28;20050;-77
2022/03/02 11:08:06;;;;;;;27.58;20.13;;;12.90;99.90;;;;;;5016567;28;20049;-76
2022/03/02 11:10:33;;;;;;;24.63;18.92;;;13.30;99.90;;;;;;5015939;28;20115;-78
2022/03/02 11:13:05;;;;;;;26.83;19.65;;;13.70;99.90;;;;;;5031021;28;20054;-78
2022/03/02 11:15:51;;;;;;;24.90;18.95;;;14.30;99.90;;;;;;5020225;28;20919;-78
2022/03/02 11:18:19;;;;;;;26.10;19.73;;;14.80;99.90;;;;;;5015352;28;20101;-78
2022/03/02 11:21:14;;;;;;;26.17;19.27;;;15.40;99.90;;;;;;5014342;28;20065;-77
2022/03/02 11:23:44;;;;;;;24.75;18.15;;;16.10;99.90;;;;;;5014374;28;20056;-79
2022/03/02 11:26:16;;;;;;;25.02;18.90;;;16.50;99.90;;;;;;5001833;28;20125;-77
2022/03/02 11:29:06;;;;;;;25.80;19.90;;;16.60;99.90;;;;;;5008798;28;20251;-77
2022/03/02 11:31:54;;;;;;;25.20;20.08;;;16.80;99.90;;;;;;5016874;28;20054;-78
2022/03/02 11:34:24;;;;;;;24.92;19.02;;;17.00;99.90;;;;;;5014954;28;20076;-81
2022/03/02 11:36:59;;;;;;;24.55;19.90;;;17.30;99.90;;;;;;5014892;28;20084;-79
2022/03/02 11:39:26;;;;;;;24.55;19.95;;;17.60;99.30;;;;;;5000138;28;20046;-80
2022/03/02 11:41:55;;;;;;;25.67;19.65;;;18.10;98.70;;;;;;5019323;28;20106;-80
2022/03/02 11:44:39;;;;;;;24.90;20.30;;;18.50;97.80;;;;;;5018528;28;20061;-83
2022/03/02 11:47:08;;;;;;;26.92;20.60;;;19.10;96.60;;;;;;5015949;28;20061;-78
2022/03/02 11:49:45;;;;;;;25.83;19.95;;;19.60;95.00;;;;;;5018329;28;20379;-77
2022/03/02 11:52:16;;;;;;;28.65;21.30;;;19.80;88.30;;;;;;5016719;28;20041;-78
2022/03/02 11:54:42;;;;;;;24.73;19.92;;;20.00;92.10;;;;;;5016263;28;20045;-77
2022/03/02 11:57:07;;;;;;;23.90;20.13;;;20.20;90.80;;;;;;5018307;28;20049;-78
2022/03/02 11:59:35;;;;;;;24.67;19.77;;;20.50;88.70;;;;;;5002069;28;20290;-77
2022/03/02 12:02:14;;;;;;;26.10;20.30;;;20.60;85.50;;;;;;5001058;28;20104;-78
2022/03/02 12:04:40;;;;;;;25.63;20.75;;;20.70;81.20;;;;;;5031885;28;20060;-78
2022/03/02 12:07:08;;;;;;;24.75;19.38;;;20.60;83.20;;;;;;5036598;28;20081;-78
2022/03/02 12:09:39;;;;;;;24.08;19.05;;;20.80;81.90;;;;;;5019273;28;20304;-82
2022/03/02 12:12:12;;;;;;;24.65;20.38;;;20.90;78.10;;;;;;5034536;28;20124;-80
2022/03/02 12:14:44;;;;;;;24.38;18.92;;;20.90;80.70;;;;;;5037369;28;20544;-78
2022/03/02 12:17:19;;;;;;;22.83;19.67;;;21.00;76.30;;;;;;5006886;28;20041;-78
2022/03/02 12:19:48;;;;;;;25.00;19.55;;;21.10;78.80;;;;;;5035116;28;20165;-79
2022/03/02 12:22:15;;;;;;;34.17;19.70;;;21.10;80.80;;;;;;5029203;28;20433;-79
2022/03/02 12:24:40;;;;;;;26.50;19.95;;;21.30;80.40;;;;;;5010817;28;20104;-78
2022/03/02 12:27:11;;;;;;;23.27;18.67;;;20.90;79.20;;;;;;5019856;28;20045;-78
2022/03/02 12:29:39;;;;;;;24.27;19.63;;;20.80;75.00;;;;;;5019920;28;20050;-78
2022/03/02 12:32:11;;;;;;;25.42;19.90;;;20.70;79.20;;;;;;5018731;28;20042;-79
2022/03/02 12:34:40;;;;;;;29.25;20.92;;;20.70;80.30;;;;;;5018954;28;20619;-79
2022/03/02 12:37:07;;;;;;;30.23;20.10;;;20.60;80.30;;;;;;5019247;28;20045;-77
2022/03/02 12:39:34;;;;;;;23.42;20.15;;;20.60;83.50;;;;;;5003712;28;20054;-78
2022/03/02 12:42:04;;;;;;;23.20;18.83;;;20.70;83.70;;;;;;5018586;28;20141;-77
2022/03/02 12:44:35;;;;;;;24.40;19.48;;;20.60;81.60;;;;;;5018991;28;20065;-79